createdAt,value
2019-04-20T00:01:22.785Z,95918.64
2019-04-20T00:03:49.049Z,95918.94
2019-04-20T00:06:19.511Z,95925.22
2019-04-20T00:08:58.112Z,95928.23
2019-04-20T00:11:27.318Z,95926.48
2019-04-20T00:14:01.325Z,95929.17
2019-04-20T00:16:23.077Z,95939.55
2019-04-20T00:18:56.582Z,95938.55
2019-04-20T00:21:46.994Z,95938.95
2019-04-20T00:24:25.233Z,95942.63
2019-04-20T00:27:22.646Z,95938.09
2019-04-20T00:29:43.655Z,95946.46
2019-04-20T00:32:02.781Z,95946.13
2019-04-20T00:34:30.074Z,95943.67
2019-04-20T00:36:56.152Z,95946.75
2019-04-20T00:39:25.930Z,95950.25
2019-04-20T00:42:01.075Z,95946.75
2019-04-20T00:44:31.726Z,95938.72
2019-04-20T00:47:08.609Z,95939.02
2019-04-20T00:49:44.529Z,95934.37
2019-04-20T00:54:32.570Z,95936.23
2019-04-20T00:57:13.509Z,95934.06
2019-04-20T00:59:55.203Z,95932.42
2019-04-20T01:02:20.858Z,95932.42
2019-04-20T01:04:55.087Z,95930.87
2019-04-20T01:07:27.359Z,95925.73
2019-04-20T01:10:08.991Z,95924.06
2019-04-20T01:12:40.642Z,95918.70
2019-04-20T01:15:16.743Z,95924.39
2019-04-20T01:17:41.744Z,95927.56
2019-04-20T01:20:12.090Z,95927.38
2019-04-20T01:22:48.211Z,95926.55
2019-04-20T01:25:18.177Z,95921.91
2019-04-20T01:28:06.630Z,95924.17
2019-04-20T01:30:24.886Z,95928.19
2019-04-20T01:32:59.662Z,95923.05
2019-04-20T01:35:38.206Z,95929.75
2019-04-20T01:38:09.891Z,95924.70
2019-04-20T01:40:21.198Z,95929.41
2019-04-20T01:42:51.176Z,95920.56
2019-04-20T01:45:27.431Z,95917.58
2019-04-20T01:47:54.870Z,95917.58
2019-04-20T01:50:27.712Z,95918.92
2019-04-20T01:53:08.993Z,95915.42
2019-04-20T01:55:44.020Z,95911.71
2019-04-20T01:58:42.128Z,95906.54
2019-04-20T02:01:31.051Z,95910.67
2019-04-20T02:04:05.531Z,95904.20
2019-04-20T02:06:44.391Z,95905.02
2019-04-20T02:09:14.544Z,95900.70
2019-04-20T02:11:43.054Z,95898.32
2019-04-20T02:14:13.658Z,95901.70
2019-04-20T02:16:48.072Z,95901.70
2019-04-20T02:19:26.701Z,95894.70
2019-04-20T02:22:01.452Z,95901.41
2019-04-20T02:24:17.724Z,95900.77
2019-04-20T02:26:47.680Z,95907.28
2019-04-20T02:29:40.714Z,95903.97
2019-04-20T02:32:23.599Z,95895.75
2019-04-20T02:34:59.442Z,95887.50
2019-04-20T02:37:56.915Z,95891.21
2019-04-20T02:40:16.114Z,95887.38
2019-04-20T02:42:51.533Z,95888.09
2019-04-20T02:45:27.715Z,95886.38
2019-04-20T02:50:19.096Z,95885.03
2019-04-20T02:55:22.476Z,95885.23
2019-04-20T03:00:19.386Z,95877.49
2019-04-20T03:02:38.575Z,95874.22
2019-04-20T03:05:08.159Z,95882.55
2019-04-20T03:07:41.086Z,95885.03
2019-04-20T03:10:17.293Z,95882.25
2019-04-20T03:12:53.479Z,95878.83
2019-04-20T03:15:22.625Z,95879.35
2019-04-20T03:17:52.433Z,95880.39
2019-04-20T03:20:23.296Z,95880.17
2019-04-20T03:23:21.350Z,95880.06
2019-04-20T03:25:53.464Z,95884.70
2019-04-20T03:28:16.723Z,95882.25
2019-04-20T03:33:52.805Z,95891.09
2019-04-20T03:36:07.518Z,95889.42
2019-04-20T03:38:27.258Z,95894.78
2019-04-20T03:40:52.083Z,95896.12
2019-04-20T03:43:10.066Z,95892.95
2019-04-20T03:45:48.419Z,95890.39
2019-04-20T03:48:29.471Z,95897.58
2019-04-20T03:51:06.102Z,95898.09
2019-04-20T03:53:34.401Z,95902.81
2019-04-20T03:56:42.274Z,95907.47
2019-04-20T03:59:19.508Z,95906.41
2019-04-20T04:02:22.714Z,95898.91
2019-04-20T04:04:54.528Z,95911.25
2019-04-20T04:07:17.924Z,95923.70
2019-04-20T04:09:56.421Z,95920.72
2019-04-20T04:12:47.902Z,95917.74
2019-04-20T04:15:16.840Z,95921.23
2019-04-20T04:17:48.216Z,95927.11
2019-04-20T04:20:20.783Z,95928.11
2019-04-20T04:23:03.730Z,95936.28
2019-04-20T04:25:31.711Z,95930.05
2019-04-20T04:28:09.397Z,95936.29
2019-04-20T04:30:39.309Z,95934.24
2019-04-20T04:33:45.734Z,95940.93
2019-04-20T04:35:38.794Z,95940.93
2019-04-20T04:38:12.668Z,95944.39
2019-04-20T04:40:59.034Z,95942.30
2019-04-20T04:43:22.121Z,95948.13
2019-04-20T04:45:31.680Z,95950.62
2019-04-20T04:48:01.934Z,95951.63
2019-04-20T04:50:33.119Z,95959.13
2019-04-20T04:53:08.013Z,95950.62
2019-04-20T04:55:43.877Z,95951.63
2019-04-20T04:58:06.382Z,95947.83
2019-04-20T05:00:38.007Z,95944.84
2019-04-20T05:03:31.052Z,95958.74
2019-04-20T05:06:10.586Z,95956.45
2019-04-20T05:08:30.724Z,95956.95
2019-04-20T05:10:56.089Z,95959.02
2019-04-20T05:13:35.694Z,95956.46
2019-04-20T05:16:10.974Z,95964.64
2019-04-20T05:18:50.233Z,95960.38
2019-04-20T05:21:25.411Z,95964.69
2019-04-20T05:24:22.692Z,95964.95
2019-04-20T05:27:01.968Z,95965.27
2019-04-20T05:29:19.906Z,95966.98
2019-04-20T05:31:51.779Z,95969.94
2019-04-20T05:34:38.663Z,95971.30
2019-04-20T05:37:17.997Z,95975.10
2019-04-20T05:39:38.185Z,95980.83
2019-04-20T05:42:12.348Z,95982.11
2019-04-20T05:44:45.991Z,95982.94
2019-04-20T05:47:16.955Z,95998.19
2019-04-20T05:49:45.300Z,95990.70
2019-04-20T05:52:29.050Z,95993.75
2019-04-20T05:54:51.201Z,95992.86
2019-04-20T05:57:25.076Z,95994.08
2019-04-20T05:59:56.200Z,95993.05
2019-04-20T06:02:23.196Z,95993.77
2019-04-20T06:07:25.258Z,96001.44
2019-04-20T06:09:59.677Z,96009.75
2019-04-20T06:12:32.041Z,96005.95
2019-04-20T06:15:14.481Z,96010.94
2019-04-20T06:17:59.425Z,96009.37
2019-04-20T06:20:39.186Z,96012.95
2019-04-20T06:23:34.601Z,96014.42
2019-04-20T06:26:15.913Z,96009.09
2019-04-20T06:28:26.730Z,96015.73
2019-04-20T06:30:52.611Z,96017.16
2019-04-20T06:36:46.192Z,96015.76
2019-04-20T06:39:32.419Z,96019.66
2019-04-20T06:44:26.411Z,96023.16
2019-04-20T06:46:59.098Z,96028.20
2019-04-20T06:52:23.069Z,96033.86
2019-04-20T06:55:05.182Z,96032.22
2019-04-20T06:57:40.739Z,96032.91
2019-04-20T07:02:44.284Z,96036.23
2019-04-20T07:05:22.393Z,96032.73
2019-04-20T07:07:47.722Z,96040.55
2019-04-20T07:10:19.510Z,96039.61
2019-04-20T07:12:47.003Z,96041.06
2019-04-20T07:15:17.472Z,96043.34
2019-04-20T07:17:57.302Z,96048.83
2019-04-20T07:20:39.632Z,96047.48
2019-04-20T07:23:18.632Z,96063.16
2019-04-20T07:25:37.251Z,96055.22
2019-04-20T07:28:13.534Z,96053.48
2019-04-20T07:30:41.733Z,96058.95
2019-04-20T07:33:08.928Z,96053.48
2019-04-20T07:35:40.055Z,96060.08
2019-04-20T07:38:25.651Z,96058.95
2019-04-20T07:40:38.308Z,96055.77
2019-04-20T07:43:13.631Z,96056.86
2019-04-20T07:45:37.582Z,96062.52
2019-04-20T07:48:16.131Z,96059.41
2019-04-20T07:50:40.886Z,96062.09
2019-04-20T07:53:12.287Z,96058.59
2019-04-20T07:56:05.140Z,96057.31
2019-04-20T07:58:10.936Z,96058.16
2019-04-20T08:01:04.235Z,96061.45
2019-04-20T08:03:44.200Z,96054.97
2019-04-20T08:06:14.488Z,96051.74
2019-04-20T08:08:56.075Z,96060.99
2019-04-20T08:11:23.234Z,96058.49
2019-04-20T08:14:05.976Z,96057.88
2019-04-20T08:16:41.051Z,96052.53
2019-04-20T08:19:01.224Z,96044.29
2019-04-20T08:21:38.790Z,96045.84
2019-04-20T08:24:02.414Z,96051.50
2019-04-20T08:26:23.070Z,96048.13
2019-04-20T08:28:58.659Z,96044.95
2019-04-20T08:32:08.699Z,96046.53
2019-04-20T08:34:46.149Z,96044.89
2019-04-20T08:37:09.860Z,96052.71
2019-04-20T08:39:53.370Z,96057.52
2019-04-20T08:42:16.478Z,96061.81
2019-04-20T08:47:37.828Z,96054.97
2019-04-20T08:50:22.439Z,96064.00
2019-04-20T08:55:23.890Z,96084.97
2019-04-20T08:57:37.945Z,96080.04
2019-04-20T09:00:09.243Z,96076.84
2019-04-20T09:02:41.368Z,96072.61
2019-04-20T09:05:28.191Z,96078.97
2019-04-20T09:07:55.383Z,96077.12
2019-04-20T09:10:34.410Z,96077.97
2019-04-20T09:12:57.371Z,96083.51
2019-04-20T09:15:18.779Z,96077.84
2019-04-20T09:18:03.844Z,96075.59
2019-04-20T09:20:45.879Z,96081.47
2019-04-20T09:23:26.677Z,96078.70
2019-04-20T09:26:00.309Z,96076.55
2019-04-20T09:28:27.580Z,96071.88
2019-04-20T09:31:01.781Z,96075.14
2019-04-20T09:33:53.078Z,96071.48
2019-04-20T09:36:25.206Z,96074.81
2019-04-20T09:39:08.564Z,96068.91
2019-04-20T09:42:01.517Z,96076.23
2019-04-20T09:44:31.486Z,96077.20
2019-04-20T09:47:01.987Z,96074.00
2019-04-20T09:49:42.509Z,96069.62
2019-04-20T09:52:17.901Z,96071.78
2019-04-20T09:54:52.573Z,96077.14
2019-04-20T09:57:26.113Z,96068.34
2019-04-20T09:59:55.204Z,96070.88
2019-04-20T10:02:16.857Z,96074.95
2019-04-20T10:04:41.764Z,96079.61
2019-04-20T10:07:16.597Z,96087.67
2019-04-20T10:09:45.177Z,96084.27
2019-04-20T10:12:15.712Z,96078.63
2019-04-20T10:14:46.752Z,96089.47
2019-04-20T10:17:17.929Z,96080.64
2019-04-20T10:19:48.301Z,96082.84
2019-04-20T10:22:18.453Z,96092.99
2019-04-20T10:24:50.416Z,96092.15
2019-04-20T10:27:20.835Z,96089.27
2019-04-20T10:29:51.357Z,96091.41
2019-04-20T10:32:25.047Z,96091.77
2019-04-20T10:34:52.721Z,96086.33
2019-04-20T10:37:27.150Z,96085.33
2019-04-20T10:39:56.675Z,96092.90
2019-04-20T10:42:26.174Z,96094.77
2019-04-20T10:44:58.564Z,96094.28
2019-04-20T10:47:27.312Z,96091.17
2019-04-20T10:49:56.812Z,96091.90
2019-04-20T10:52:27.748Z,96096.50
2019-04-20T10:54:58.550Z,96089.56
2019-04-20T10:57:28.106Z,96098.75
2019-04-20T10:59:57.605Z,96100.00
2019-04-20T11:02:27.758Z,96095.83
2019-04-20T11:04:57.229Z,96099.39
2019-04-20T11:07:26.659Z,96100.80
2019-04-20T11:10:07.895Z,96098.69
2019-04-20T11:12:28.450Z,96099.75
2019-04-20T11:14:58.652Z,96101.17
2019-04-20T11:17:29.986Z,96096.85
2019-04-20T11:19:59.293Z,96100.47
2019-04-20T11:22:28.714Z,96102.59
2019-04-20T11:24:58.545Z,96104.13
2019-04-20T11:27:28.116Z,96111.05
2019-04-20T11:29:58.206Z,96104.33
2019-04-20T11:32:28.345Z,96108.88
2019-04-20T11:35:03.612Z,96107.73
2019-04-20T11:37:29.109Z,96101.27
2019-04-20T11:39:59.079Z,96110.06
2019-04-20T11:42:29.823Z,96102.31
2019-04-20T11:45:00.429Z,96109.49
2019-04-20T11:47:29.902Z,96108.37
2019-04-20T11:49:59.569Z,96115.19
2019-04-20T11:52:31.982Z,96109.06
2019-04-20T11:55:00.347Z,96115.22
2019-04-20T11:57:29.793Z,96113.33
2019-04-20T11:59:59.498Z,96111.17
2019-04-20T12:03:09.808Z,96105.70
2019-04-20T12:05:38.101Z,96117.74
2019-04-20T12:08:04.959Z,96104.08
2019-04-20T12:10:35.094Z,96100.58
2019-04-20T12:13:05.832Z,96102.31
2019-04-20T12:15:38.600Z,96105.60
2019-04-20T12:18:07.563Z,96101.85
2019-04-20T12:20:38.785Z,96105.66
2019-04-20T12:23:08.600Z,96105.69
2019-04-20T12:25:40.879Z,96106.93
2019-04-20T12:28:09.621Z,96104.90
2019-04-20T12:30:39.767Z,96104.58
2019-04-20T12:33:09.603Z,96115.35
2019-04-20T12:35:40.272Z,96115.52
2019-04-20T12:38:10.497Z,96115.11
2019-04-20T12:40:40.173Z,96110.00
2019-04-20T12:43:10.974Z,96111.94
2019-04-20T12:45:44.152Z,96099.72
2019-04-20T12:48:13.916Z,96104.22
2019-04-20T12:50:43.790Z,96110.17
2019-04-20T12:53:14.829Z,96100.61
2019-04-20T12:55:44.422Z,96113.90
2019-04-20T12:58:14.571Z,96109.52
2019-04-20T13:00:49.595Z,96108.81
2019-04-20T13:03:19.794Z,96110.34
2019-04-20T13:30:48.142Z,96077.18
2019-04-20T13:33:17.980Z,96099.25
2019-04-20T13:35:48.126Z,96101.86
2019-04-20T13:38:18.366Z,96098.13
2019-04-20T13:40:48.186Z,96097.63
2019-04-20T13:43:17.729Z,96104.73
2019-04-20T13:45:48.875Z,96110.84
2019-04-20T13:48:19.216Z,96106.61
2019-04-20T13:50:49.716Z,96106.48
2019-04-20T13:53:19.355Z,96099.91
2019-04-20T13:55:49.837Z,96098.89
2019-04-20T13:58:36.894Z,96101.25
2019-04-20T14:01:24.280Z,96101.06
2019-04-20T14:04:10.789Z,96103.12
2019-04-20T14:06:41.466Z,96095.93
2019-04-20T14:09:11.848Z,96102.94
2019-04-20T14:11:41.503Z,96093.14
2019-04-20T14:14:10.936Z,96075.53
2019-04-20T14:16:41.239Z,96080.48
2019-04-20T14:19:11.257Z,96075.13
2019-04-20T14:36:44.876Z,96077.00
2019-04-20T14:39:14.345Z,96083.37
2019-04-20T14:41:44.496Z,96078.40
2019-04-20T14:44:14.074Z,96085.80
2019-04-20T14:46:43.771Z,96080.84
2019-04-20T14:49:14.623Z,96085.78
2019-04-20T14:51:44.125Z,96085.15
2019-04-20T14:54:14.167Z,96074.55
2019-04-20T18:34:25.680Z,96155.15
2019-04-20T18:36:54.624Z,96152.87
2019-04-20T18:39:33.392Z,96149.33
2019-04-20T18:42:06.688Z,96159.13
2019-04-20T18:44:38.118Z,96162.94
2019-04-20T18:47:18.232Z,96156.76
2019-04-20T18:49:44.946Z,96151.22
2019-04-20T18:52:00.081Z,96159.56
2019-04-20T18:54:34.607Z,96157.70
2019-04-20T18:57:01.618Z,96168.67
2019-04-20T18:59:40.043Z,96163.64
2019-04-20T19:02:05.409Z,96164.89
2019-04-20T19:04:33.509Z,96171.11
2019-04-20T19:07:03.731Z,96170.07
2019-04-20T19:09:34.671Z,96168.15
2019-04-20T19:12:07.472Z,96160.97
2019-04-20T19:15:13.509Z,96168.09
2019-04-20T19:18:17.081Z,96169.16
2019-04-20T19:20:59.156Z,96168.16
2019-04-20T19:23:29.309Z,96171.41
2019-04-20T19:26:05.545Z,96166.90
2019-04-20T19:28:37.850Z,96171.04
2019-04-20T19:31:14.695Z,96165.56
2019-04-20T19:33:54.447Z,96164.07
2019-04-20T19:36:15.210Z,96168.52
2019-04-20T19:38:46.551Z,96167.39
2019-04-20T19:41:22.864Z,96166.87
2019-04-20T19:43:48.996Z,96170.68
2019-04-20T19:48:51.482Z,96168.15
2019-04-20T19:51:35.743Z,96172.81
2019-04-20T19:54:06.482Z,96169.22
2019-04-20T19:56:34.096Z,96166.14
2019-04-20T19:59:01.155Z,96165.02
2019-04-20T20:01:15.690Z,96168.34
2019-04-20T20:03:50.335Z,96165.96
2019-04-20T20:06:24.372Z,96167.30
2019-04-20T20:08:55.798Z,96164.23
2019-04-20T20:11:28.125Z,96164.41
2019-04-20T20:13:53.511Z,96154.85
2019-04-20T20:16:29.169Z,96163.92
2019-04-20T20:19:02.698Z,96164.47
2019-04-20T20:21:35.249Z,96159.94
2019-04-20T20:23:54.472Z,96163.41
2019-04-20T20:26:31.362Z,96164.99
2019-04-20T20:29:08.188Z,96157.13
2019-04-20T20:31:37.807Z,96158.35
2019-04-20T20:34:12.228Z,96158.56
2019-04-20T20:36:39.245Z,96169.46
2019-04-20T20:39:12.338Z,96163.68
2019-04-20T20:41:45.261Z,96162.40
2019-04-20T20:44:08.781Z,96168.91
2019-04-20T20:46:43.924Z,96161.91
2019-04-20T20:49:21.156Z,96161.79
2019-04-20T20:51:57.379Z,96159.72
2019-04-20T20:54:22.256Z,96157.89
2019-04-20T20:56:49.962Z,96161.79
2019-04-20T20:59:18.507Z,96156.83
2019-04-20T21:01:50.386Z,96157.44
2019-04-20T21:04:12.054Z,96157.31
2019-04-20T21:06:42.596Z,96155.15
2019-04-20T21:09:12.549Z,96154.33
2019-04-20T21:11:42.313Z,96153.51
2019-04-20T21:14:14.081Z,96154.91
2019-04-20T21:16:53.148Z,96151.53
2019-04-20T21:19:27.292Z,96155.42
2019-04-20T21:21:54.742Z,96153.14
2019-04-20T21:24:23.698Z,96155.94
2019-04-20T21:26:54.345Z,96153.66
2019-04-20T21:29:32.400Z,96148.60
2019-04-20T21:32:01.646Z,96147.78
2019-04-20T21:34:27.242Z,96153.14
2019-04-20T21:37:03.512Z,96146.13
2019-04-20T21:39:38.915Z,96149.72
2019-04-20T21:42:05.418Z,96141.99
2019-04-20T21:44:35.744Z,96143.85
2019-04-20T21:47:03.222Z,96141.05
2019-04-20T21:49:47.525Z,96149.91
2019-04-20T21:52:15.179Z,96141.05
2019-04-20T21:54:36.053Z,96149.39
2019-04-20T21:57:10.547Z,96136.73
2019-04-20T21:59:43.220Z,96144.24
2019-04-20T22:02:17.197Z,96148.66
2019-04-20T22:04:39.645Z,96146.46
2019-04-20T22:07:10.367Z,96149.66
2019-04-20T22:09:45.602Z,96146.46
2019-04-20T22:12:11.977Z,96151.38
2019-04-20T22:14:41.833Z,96151.20
2019-04-20T22:17:14.269Z,96150.05
2019-04-20T22:19:53.025Z,96150.56
2019-04-20T22:22:30.486Z,96151.26
2019-04-20T22:24:57.862Z,96141.19
2019-04-20T22:27:23.934Z,96137.27
2019-04-20T22:29:48.137Z,96137.27
2019-04-20T22:32:20.459Z,96138.39
2019-04-20T22:34:57.044Z,96130.57
2019-04-20T22:37:27.913Z,96133.55
2019-04-20T22:39:56.176Z,96132.09
2019-04-20T22:42:24.147Z,96130.23
2019-04-20T22:44:56.624Z,96123.02
2019-04-20T22:47:28.992Z,96115.51
2019-04-20T22:50:15.146Z,96113.34
2019-04-20T22:52:42.943Z,96118.19
2019-04-20T22:55:20.626Z,96120.08
2019-04-20T22:57:43.322Z,96114.03
2019-04-20T23:00:06.762Z,96111.66
2019-04-20T23:02:33.193Z,96115.22
2019-04-20T23:05:02.957Z,96122.16
2019-04-20T23:07:32.741Z,96115.13
2019-04-20T23:10:03.798Z,96118.41
2019-04-20T23:12:33.957Z,96116.86
2019-04-20T23:15:04.645Z,96114.58
2019-04-20T23:17:40.028Z,96115.30
2019-04-20T23:20:14.634Z,96115.48
2019-04-20T23:22:40.901Z,96111.59
2019-04-20T23:25:09.036Z,96111.78
2019-04-20T23:27:40.359Z,96114.66
2019-04-20T23:30:13.486Z,96107.15
2019-04-20T23:32:42.033Z,96108.67
2019-04-20T23:35:18.136Z,96100.85
2019-04-20T23:37:46.495Z,96098.66
2019-04-20T23:40:16.801Z,96098.36
2019-04-20T23:43:17.767Z,96101.03
2019-04-20T23:46:09.236Z,96090.20
2019-04-20T23:48:44.486Z,96090.41
2019-04-20T23:51:36.227Z,96090.59
2019-04-20T23:53:54.046Z,96086.27
2019-04-20T23:56:18.401Z,96084.08
2019-04-20T23:58:49.883Z,96081.10
